sensor_id;sensor_type;location;lat;lon;timestamp;noise_LAeq;noise_LA_min;noise_LA_max;noise_LA01;noise_LA95
66463;Laerm;56827;52.178;4.500;2022-08-03T00:00:01;30.95;29.47;32.67;;
66463;Laerm;56827;52.178;4.500;2022-08-03T00:00:11;30.77;29.18;33.92;;
66463;Laerm;56827;52.178;4.500;2022-08-03T00:00:24;31.09;29.40;33.75;;
66463;Laerm;56827;52.178;4.500;2022-08-03T00:00:37;31.24;29.63;33.54;;
66463;Laerm;56827;52.178;4.500;2022-08-03T00:00:47;30.91;29.75;35.79;;
66463;Laerm;56827;52.178;4.500;2022-08-03T00:00:57;31.02;29.70;33.66;;
66463;Laerm;56827;52.178;4.500;2022-08-03T00:01:07;31.41;29.80;36.06;;
66463;Laerm;56827;52.178;4.500;2022-08-03T00:01:18;32.05;30.35;35.15;;
66463;Laerm;56827;52.178;4.500;2022-08-03T00:01:28;34.30;30.25;38.26;;
66463;Laerm;56827;52.178;4.500;2022-08-03T00:01:39;36.88;34.11;39.37;;
66463;Laerm;56827;52.178;4.500;2022-08-03T00:01:49;36.04;33.50;38.45;;
66463;Laerm;56827;52.178;4.500;2022-08-03T00:02:00;35.50;32.73;39.29;;
66463;Laerm;56827;52.178;4.500;2022-08-03T00:02:12;36.73;34.18;39.83;;
66463;Laerm;56827;52.178;4.500;2022-08-03T00:02:22;37.09;34.79;44.08;;
66463;Laerm;56827;52.178;4.500;2022-08-03T00:02:33;35.90;32.25;39.29;;
66463;Laerm;56827;52.178;4.500;2022-08-03T00:02:43;34.28;31.04;46.07;;
66463;Laerm;56827;52.178;4.500;2022-08-03T00:02:53;35.17;31.22;50.57;;
66463;Laerm;56827;52.178;4.500;2022-08-03T00:03:03;33.58;30.85;43.78;;
66463;Laerm;56827;52.178;4.500;2022-08-03T00:03:14;33.02;30.39;41.28;;
66463;Laerm;56827;52.178;4.500;2022-08-03T00:03:24;31.92;30.38;34.34;;
66463;Laerm;56827;52.178;4.500;2022-08-03T00:03:34;32.67;29.82;45.97;;
66463;Laerm;56827;52.178;4.500;2022-08-03T00:03:44;32.39;29.90;42.30;;
66463;Laerm;56827;52.178;4.500;2022-08-03T00:03:55;32.33;30.20;42.05;;
66463;Laerm;56827;52.178;4.500;2022-08-03T00:04:06;33.39;31.50;36.33;;
66463;Laerm;56827;52.178;4.500;2022-08-03T00:04:16;31.30;29.66;36.56;;
66463;Laerm;56827;52.178;4.500;2022-08-03T00:04:26;31.66;29.75;40.45;;
66463;Laerm;56827;52.178;4.500;2022-08-03T00:04:36;30.91;29.75;34.03;;
66463;Laerm;56827;52.178;4.500;2022-08-03T00:04:47;31.11;29.83;32.55;;
66463;Laerm;56827;52.178;4.500;2022-08-03T00:04:57;30.73;29.51;32.04;;
66463;Laerm;56827;52.178;4.500;2022-08-03T00:05:07;32.65;30.40;36.46;;
66463;Laerm;56827;52.178;4.500;2022-08-03T00:05:17;34.92;30.93;37.64;;
66463;Laerm;56827;52.178;4.500;2022-08-03T00:05:28;31.58;30.20;34.10;;
66463;Laerm;56827;52.178;4.500;2022-08-03T00:05:38;34.79;31.25;47.73;;
66463;Laerm;56827;52.178;4.500;2022-08-03T00:05:49;33.50;30.08;37.42;;
66463;Laerm;56827;52.178;4.500;2022-08-03T00:05:59;30.74;29.37;35.36;;
66463;Laerm;56827;52.178;4.500;2022-08-03T00:06:09;31.26;29.21;43.66;;
66463;Laerm;56827;52.178;4.500;2022-08-03T00:06:19;30.74;29.36;33.42;;
66463;Laerm;56827;52.178;4.500;2022-08-03T00:06:30;31.24;30.06;38.45;;
66463;Laerm;56827;52.178;4.500;2022-08-03T00:06:40;32.30;30.63;34.63;;
66463;Laerm;56827;52.178;4.500;2022-08-03T00:06:50;32.46;30.88;34.90;;
66463;Laerm;56827;52.178;4.500;2022-08-03T00:07:00;39.57;31.42;45.27;;
66463;Laerm;56827;52.178;4.500;2022-08-03T00:07:11;35.49;31.12;42.66;;
66463;Laerm;56827;52.178;4.500;2022-08-03T00:07:21;34.78;31.25;44.44;;
66463;Laerm;56827;52.178;4.500;2022-08-03T00:07:31;36.05;32.76;37.78;;
66463;Laerm;56827;52.178;4.500;2022-08-03T00:07:41;32.47;30.65;34.39;;
66463;Laerm;56827;52.178;4.500;2022-08-03T00:07:52;31.08;29.79;33.02;;
66463;Laerm;56827;52.178;4.500;2022-08-03T00:08:02;30.83;29.27;31.90;;
66463;Laerm;56827;52.178;4.500;2022-08-03T00:08:12;30.96;29.84;32.59;;
66463;Laerm;56827;52.178;4.500;2022-08-03T00:08:23;30.65;29.47;32.04;;
66463;Laerm;56827;52.178;4.500;2022-08-03T00:08:33;31.01;29.51;32.31;;
66463;Laerm;56827;52.178;4.500;2022-08-03T00:08:43;31.40;30.00;32.74;;
66463;Laerm;56827;52.178;4.500;2022-08-03T00:08:53;33.15;30.27;47.41;;
66463;Laerm;56827;52.178;4.500;2022-08-03T00:09:04;32.91;30.89;35.79;;
66463;Laerm;56827;52.178;4.500;2022-08-03T00:09:14;33.16;31.20;36.58;;
66463;Laerm;56827;52.178;4.500;2022-08-03T00:09:24;34.60;31.87;37.27;;
66463;Laerm;56827;52.178;4.500;2022-08-03T00:09:35;35.27;32.92;39.64;;
66463;Laerm;56827;52.178;4.500;2022-08-03T00:09:45;36.32;32.71;39.49;;
66463;Laerm;56827;52.178;4.500;2022-08-03T00:09:55;32.78;30.77;34.29;;
66463;Laerm;56827;52.178;4.500;2022-08-03T00:10:05;32.30;30.88;33.77;;
66463;Laerm;56827;52.178;4.500;2022-08-03T00:10:16;32.61;31.06;34.43;;
66463;Laerm;56827;52.178;4.500;2022-08-03T00:10:26;32.60;31.50;34.23;;
66463;Laerm;56827;52.178;4.500;2022-08-03T00:10:36;41.45;32.53;45.94;;
66463;Laerm;56827;52.178;4.500;2022-08-03T00:10:47;36.83;34.67;38.50;;
66463;Laerm;56827;52.178;4.500;2022-08-03T00:10:57;37.64;32.26;53.82;;
66463;Laerm;56827;52.178;4.500;2022-08-03T00:11:08;36.35;32.24;50.98;;
66463;Laerm;56827;52.178;4.500;2022-08-03T00:11:18;34.99;31.30;42.01;;
66463;Laerm;56827;52.178;4.500;2022-08-03T00:11:28;32.41;30.88;34.57;;
66463;Laerm;56827;52.178;4.500;2022-08-03T00:11:38;33.25;31.38;43.33;;
66463;Laerm;56827;52.178;4.500;2022-08-03T00:11:49;32.93;31.24;34.68;;
66463;Laerm;56827;52.178;4.500;2022-08-03T00:11:59;33.31;31.66;35.70;;
66463;Laerm;56827;52.178;4.500;2022-08-03T00:12:09;35.42;33.45;36.65;;
66463;Laerm;56827;52.178;4.500;2022-08-03T00:12:19;33.31;31.39;35.07;;
66463;Laerm;56827;52.178;4.500;2022-08-03T00:12:30;34.22;32.00;36.60;;
66463;Laerm;56827;52.178;4.500;2022-08-03T00:12:40;33.31;30.87;35.50;;
66463;Laerm;56827;52.178;4.500;2022-08-03T00:12:50;32.90;31.09;35.46;;
66463;Laerm;56827;52.178;4.500;2022-08-03T00:13:00;35.56;31.88;38.63;;
66463;Laerm;56827;52.178;4.500;2022-08-03T00:13:11;32.71;31.27;34.32;;
66463;Laerm;56827;52.178;4.500;2022-08-03T00:13:22;35.27;31.49;39.26;;
66463;Laerm;56827;52.178;4.500;2022-08-03T00:13:32;38.35;34.83;39.98;;
66463;Laerm;56827;52.178;4.500;2022-08-03T00:13:42;37.00;33.77;47.58;;
66463;Laerm;56827;52.178;4.500;2022-08-03T00:13:53;36.04;33.98;38.11;;
66463;Laerm;56827;52.178;4.500;2022-08-03T00:14:04;34.04;32.24;36.21;;
66463;Laerm;56827;52.178;4.500;2022-08-03T00:14:14;33.18;31.65;34.87;;
66463;Laerm;56827;52.178;4.500;2022-08-03T00:14:25;33.33;32.10;36.97;;
66463;Laerm;56827;52.178;4.500;2022-08-03T00:14:35;37.45;33.00;40.27;;
66463;Laerm;56827;52.178;4.500;2022-08-03T00:14:45;35.82;32.47;38.76;;
66463;Laerm;56827;52.178;4.500;2022-08-03T00:14:55;34.11;31.63;37.73;;
66463;Laerm;56827;52.178;4.500;2022-08-03T00:15:05;34.43;32.00;38.30;;
66463;Laerm;56827;52.178;4.500;2022-08-03T00:15:16;41.38;37.40;43.52;;
66463;Laerm;56827;52.178;4.500;2022-08-03T00:15:26;36.88;34.17;43.59;;
66463;Laerm;56827;52.178;4.500;2022-08-03T00:15:36;39.09;34.94;49.77;;
66463;Laerm;56827;52.178;4.500;2022-08-03T00:15:46;39.10;32.28;53.42;;
66463;Laerm;56827;52.178;4.500;2022-08-03T00:15:57;32.16;30.57;33.75;;
66463;Laerm;56827;52.178;4.500;2022-08-03T00:16:07;32.68;30.94;34.20;;
66463;Laerm;56827;52.178;4.500;2022-08-03T00:16:18;32.38;31.32;35.27;;
66463;Laerm;56827;52.178;4.500;2022-08-03T00:16:28;32.58;30.89;34.03;;
66463;Laerm;56827;52.178;4.500;2022-08-03T00:16:38;33.66;31.98;35.64;;
66463;Laerm;56827;52.178;4.500;2022-08-03T00:16:48;31.84;30.19;35.21;;
66463;Laerm;56827;52.178;4.500;2022-08-03T00:16:59;31.84;30.45;33.83;;
66463;Laerm;56827;52.178;4.500;2022-08-03T00:17:09;34.32;30.89;36.59;;
66463;Laerm;56827;52.178;4.500;2022-08-03T00:17:19;32.62;30.62;35.16;;
66463;Laerm;56827;52.178;4.500;2022-08-03T00:17:30;31.51;29.87;33.21;;
66463;Laerm;56827;52.178;4.500;2022-08-03T00:17:40;31.54;30.33;33.98;;
66463;Laerm;56827;52.178;4.500;2022-08-03T00:17:50;32.84;30.87;37.42;;
66463;Laerm;56827;52.178;4.500;2022-08-03T00:18:00;34.11;31.19;39.07;;
66463;Laerm;56827;52.178;4.500;2022-08-03T00:18:11;36.40;32.44;39.38;;
66463;Laerm;56827;52.178;4.500;2022-08-03T00:18:21;37.02;35.00;40.48;;
66463;Laerm;56827;52.178;4.500;2022-08-03T00:18:31;38.36;34.68;40.91;;
66463;Laerm;56827;52.178;4.500;2022-08-03T00:18:41;33.43;31.45;41.00;;
66463;Laerm;56827;52.178;4.500;2022-08-03T00:18:52;34.21;31.42;40.98;;
66463;Laerm;56827;52.178;4.500;2022-08-03T00:19:02;38.25;30.53;50.04;;
66463;Laerm;56827;52.178;4.500;2022-08-03T00:19:13;38.11;30.23;48.30;;
66463;Laerm;56827;52.178;4.500;2022-08-03T00:19:23;36.64;30.82;47.20;;
66463;Laerm;56827;52.178;4.500;2022-08-03T00:19:33;34.33;31.46;43.85;;
66463;Laerm;56827;52.178;4.500;2022-08-03T00:19:43;33.76;31.49;37.12;;
66463;Laerm;56827;52.178;4.500;2022-08-03T00:19:53;44.29;32.64;56.45;;
66463;Laerm;56827;52.178;4.500;2022-08-03T00:20:04;40.75;31.10;56.35;;
66463;Laerm;56827;52.178;4.500;2022-08-03T00:20:14;34.84;32.10;37.03;;
66463;Laerm;56827;52.178;4.500;2022-08-03T00:20:24;34.80;32.17;37.25;;
66463;Laerm;56827;52.178;4.500;2022-08-03T00:20:35;38.82;34.94;42.23;;
66463;Laerm;56827;52.178;4.500;2022-08-03T00:20:45;37.45;35.69;46.26;;
66463;Laerm;56827;52.178;4.500;2022-08-03T00:20:55;34.93;32.47;42.63;;
66463;Laerm;56827;52.178;4.500;2022-08-03T00:21:05;38.31;35.85;39.77;;
66463;Laerm;56827;52.178;4.500;2022-08-03T00:21:16;34.68;31.84;37.80;;
66463;Laerm;56827;52.178;4.500;2022-08-03T00:21:26;37.11;34.29;39.72;;
66463;Laerm;56827;52.178;4.500;2022-08-03T00:21:36;35.45;32.34;38.65;;
66463;Laerm;56827;52.178;4.500;2022-08-03T00:21:46;32.67;30.61;35.62;;
66463;Laerm;56827;52.178;4.500;2022-08-03T00:21:57;31.33;30.10;32.61;;
66463;Laerm;56827;52.178;4.500;2022-08-03T00:22:07;30.99;29.85;32.71;;
66463;Laerm;56827;52.178;4.500;2022-08-03T00:22:17;31.86;30.17;33.70;;
66463;Laerm;56827;52.178;4.500;2022-08-03T00:22:27;34.14;32.30;35.24;;
66463;Laerm;56827;52.178;4.500;2022-08-03T00:22:38;37.37;33.26;42.79;;
66463;Laerm;56827;52.178;4.500;2022-08-03T00:22:48;41.45;35.26;44.80;;
66463;Laerm;56827;52.178;4.500;2022-08-03T00:22:58;38.57;35.25;42.27;;
66463;Laerm;56827;52.178;4.500;2022-08-03T00:23:09;38.07;36.36;40.15;;
66463;Laerm;56827;52.178;4.500;2022-08-03T00:23:19;34.27;31.13;37.69;;
66463;Laerm;56827;52.178;4.500;2022-08-03T00:23:29;33.61;31.31;38.74;;
66463;Laerm;56827;52.178;4.500;2022-08-03T00:23:40;37.52;35.95;39.74;;
66463;Laerm;56827;52.178;4.500;2022-08-03T00:23:50;38.59;36.02;40.54;;
66463;Laerm;56827;52.178;4.500;2022-08-03T00:24:00;38.74;36.00;45.35;;
66463;Laerm;56827;52.178;4.500;2022-08-03T00:24:11;36.89;34.28;38.93;;
66463;Laerm;56827;52.178;4.500;2022-08-03T00:24:21;35.22;33.06;40.12;;
66463;Laerm;56827;52.178;4.500;2022-08-03T00:24:31;34.88;31.49;40.16;;
66463;Laerm;56827;52.178;4.500;2022-08-03T00:24:41;33.46;30.83;36.36;;
66463;Laerm;56827;52.178;4.500;2022-08-03T00:24:52;31.18;30.02;33.86;;
66463;Laerm;56827;52.178;4.500;2022-08-03T00:25:02;31.27;30.15;33.15;;
66463;Laerm;56827;52.178;4.500;2022-08-03T00:25:12;31.45;30.36;33.44;;
66463;Laerm;56827;52.178;4.500;2022-08-03T00:25:23;31.75;30.13;36.11;;
66463;Laerm;56827;52.178;4.500;2022-08-03T00:25:33;32.44;30.76;36.18;;
66463;Laerm;56827;52.178;4.500;2022-08-03T00:25:44;34.10;31.73;37.48;;
66463;Laerm;56827;52.178;4.500;2022-08-03T00:25:55;33.12;31.55;35.01;;
66463;Laerm;56827;52.178;4.500;2022-08-03T00:26:05;32.88;31.43;34.49;;
66463;Laerm;56827;52.178;4.500;2022-08-03T00:26:15;34.20;31.52;36.80;;
66463;Laerm;56827;52.178;4.500;2022-08-03T00:26:25;36.91;33.68;39.36;;
66463;Laerm;56827;52.178;4.500;2022-08-03T00:26:36;35.40;33.77;36.95;;
66463;Laerm;56827;52.178;4.500;2022-08-03T00:26:46;36.43;33.78;38.98;;
66463;Laerm;56827;52.178;4.500;2022-08-03T00:26:57;39.09;36.13;46.22;;
66463;Laerm;56827;52.178;4.500;2022-08-03T00:27:07;41.58;39.09;44.59;;
66463;Laerm;56827;52.178;4.500;2022-08-03T00:27:17;41.48;39.66;44.96;;
66463;Laerm;56827;52.178;4.500;2022-08-03T00:27:27;40.30;37.93;42.69;;
66463;Laerm;56827;52.178;4.500;2022-08-03T00:27:37;36.20;33.02;39.99;;
66463;Laerm;56827;52.178;4.500;2022-08-03T00:27:48;35.07;33.80;37.18;;
66463;Laerm;56827;52.178;4.500;2022-08-03T00:27:58;34.63;32.80;40.36;;
66463;Laerm;56827;52.178;4.500;2022-08-03T00:28:08;32.09;30.41;38.41;;
66463;Laerm;56827;52.178;4.500;2022-08-03T00:28:18;31.38;30.07;32.70;;
66463;Laerm;56827;52.178;4.500;2022-08-03T00:28:29;31.48;30.36;33.00;;
66463;Laerm;56827;52.178;4.500;2022-08-03T00:28:39;32.77;30.72;35.63;;
66463;Laerm;56827;52.178;4.500;2022-08-03T00:28:49;34.48;32.56;37.29;;
66463;Laerm;56827;52.178;4.500;2022-08-03T00:28:59;32.06;30.62;33.64;;
66463;Laerm;56827;52.178;4.500;2022-08-03T00:29:10;32.56;31.31;33.50;;
66463;Laerm;56827;52.178;4.500;2022-08-03T00:29:20;33.35;32.10;34.44;;
66463;Laerm;56827;52.178;4.500;2022-08-03T00:29:30;32.92;31.46;34.34;;
66463;Laerm;56827;52.178;4.500;2022-08-03T00:29:40;32.19;30.75;33.63;;
66463;Laerm;56827;52.178;4.500;2022-08-03T00:29:51;33.32;31.00;35.86;;
66463;Laerm;56827;52.178;4.500;2022-08-03T00:30:01;31.57;30.28;33.31;;
66463;Laerm;56827;52.178;4.500;2022-08-03T00:30:11;32.45;30.20;35.95;;
66463;Laerm;56827;52.178;4.500;2022-08-03T00:30:21;33.59;31.35;35.77;;
66463;Laerm;56827;52.178;4.500;2022-08-03T00:30:32;31.82;30.41;34.09;;
66463;Laerm;56827;52.178;4.500;2022-08-03T00:30:42;32.37;30.84;34.71;;
66463;Laerm;56827;52.178;4.500;2022-08-03T00:30:52;32.47;30.28;35.11;;
66463;Laerm;56827;52.178;4.500;2022-08-03T00:31:02;31.63;30.12;34.97;;
66463;Laerm;56827;52.178;4.500;2022-08-03T00:31:13;31.69;30.45;33.35;;
66463;Laerm;56827;52.178;4.500;2022-08-03T00:31:23;31.56;30.11;32.87;;
66463;Laerm;56827;52.178;4.500;2022-08-03T00:31:33;31.69;30.06;33.05;;
66463;Laerm;56827;52.178;4.500;2022-08-03T00:31:43;30.74;29.43;32.87;;
66463;Laerm;56827;52.178;4.500;2022-08-03T00:31:54;30.87;29.61;32.02;;
66463;Laerm;56827;52.178;4.500;2022-08-03T00:32:04;31.00;29.82;32.53;;
66463;Laerm;56827;52.178;4.500;2022-08-03T00:32:14;31.55;29.92;32.96;;
66463;Laerm;56827;52.178;4.500;2022-08-03T00:32:24;31.14;29.83;32.51;;
66463;Laerm;56827;52.178;4.500;2022-08-03T00:32:35;31.54;29.76;33.33;;
66463;Laerm;56827;52.178;4.500;2022-08-03T00:32:45;30.91;29.75;32.68;;
66463;Laerm;56827;52.178;4.500;2022-08-03T00:32:55;30.98;29.85;32.41;;
66463;Laerm;56827;52.178;4.500;2022-08-03T00:33:05;31.12;29.97;34.19;;
66463;Laerm;56827;52.178;4.500;2022-08-03T00:33:16;31.09;29.86;32.29;;
66463;Laerm;56827;52.178;4.500;2022-08-03T00:33:26;31.21;29.99;32.78;;
66463;Laerm;56827;52.178;4.500;2022-08-03T00:33:36;31.34;29.81;33.85;;
66463;Laerm;56827;52.178;4.500;2022-08-03T00:33:47;31.83;30.17;33.61;;
66463;Laerm;56827;52.178;4.500;2022-08-03T00:33:57;32.10;30.72;35.31;;
66463;Laerm;56827;52.178;4.500;2022-08-03T00:34:07;33.56;31.15;35.21;;
66463;Laerm;56827;52.178;4.500;2022-08-03T00:34:18;32.72;31.25;34.76;;
66463;Laerm;56827;52.178;4.500;2022-08-03T00:34:28;34.00;31.60;35.92;;
66463;Laerm;56827;52.178;4.500;2022-08-03T00:34:38;32.99;31.29;34.61;;
66463;Laerm;56827;52.178;4.500;2022-08-03T00:34:49;32.99;31.01;34.91;;
66463;Laerm;56827;52.178;4.500;2022-08-03T00:34:59;35.32;33.73;36.74;;
66463;Laerm;56827;52.178;4.500;2022-08-03T00:35:09;34.11;32.78;35.19;;
66463;Laerm;56827;52.178;4.500;2022-08-03T00:35:19;42.56;33.70;47.03;;
66463;Laerm;56827;52.178;4.500;2022-08-03T00:35:30;41.29;33.59;47.07;;
66463;Laerm;56827;52.178;4.500;2022-08-03T00:35:40;34.40;32.67;36.02;;
66463;Laerm;56827;52.178;4.500;2022-08-03T00:35:50;35.45;32.30;38.98;;
66463;Laerm;56827;52.178;4.500;2022-08-03T00:36:01;33.25;31.04;35.61;;
66463;Laerm;56827;52.178;4.500;2022-08-03T00:36:11;31.39;30.03;32.81;;
66463;Laerm;56827;52.178;4.500;2022-08-03T00:36:21;32.08;30.09;34.07;;
66463;Laerm;56827;52.178;4.500;2022-08-03T00:36:31;30.89;29.93;32.15;;
66463;Laerm;56827;52.178;4.500;2022-08-03T00:36:42;31.23;30.06;33.13;;
66463;Laerm;56827;52.178;4.500;2022-08-03T00:36:52;30.84;29.78;31.86;;
66463;Laerm;56827;52.178;4.500;2022-08-03T00:37:02;30.64;29.32;31.71;;
66463;Laerm;56827;52.178;4.500;2022-08-03T00:37:12;30.78;29.72;37.72;;
66463;Laerm;56827;52.178;4.500;2022-08-03T00:37:23;31.54;29.76;33.23;;
66463;Laerm;56827;52.178;4.500;2022-08-03T00:37:33;31.16;29.81;32.56;;
66463;Laerm;56827;52.178;4.500;2022-08-03T00:37:43;36.61;31.38;39.22;;
66463;Laerm;56827;52.178;4.500;2022-08-03T00:37:53;36.10;31.83;39.88;;
66463;Laerm;56827;52.178;4.500;2022-08-03T00:38:04;31.67;30.06;33.14;;
66463;Laerm;56827;52.178;4.500;2022-08-03T00:38:14;30.87;29.64;32.90;;
66463;Laerm;56827;52.178;4.500;2022-08-03T00:38:24;31.02;29.98;32.78;;
66463;Laerm;56827;52.178;4.500;2022-08-03T00:38:34;31.11;29.78;34.76;;
66463;Laerm;56827;52.178;4.500;2022-08-03T00:38:45;31.35;29.80;33.08;;
66463;Laerm;56827;52.178;4.500;2022-08-03T00:38:55;31.58;30.22;33.02;;
66463;Laerm;56827;52.178;4.500;2022-08-03T00:39:05;31.70;30.44;33.34;;
66463;Laerm;56827;52.178;4.500;2022-08-03T00:39:15;31.49;30.28;32.74;;
66463;Laerm;56827;52.178;4.500;2022-08-03T00:39:26;31.82;30.45;33.14;;
66463;Laerm;56827;52.178;4.500;2022-08-03T00:39:36;31.75;30.50;34.28;;
66463;Laerm;56827;52.178;4.500;2022-08-03T00:39:46;32.95;31.05;35.10;;
66463;Laerm;56827;52.178;4.500;2022-08-03T00:39:56;31.23;29.85;32.70;;
66463;Laerm;56827;52.178;4.500;2022-08-03T00:40:07;31.36;29.81;41.41;;
66463;Laerm;56827;52.178;4.500;2022-08-03T00:40:18;31.55;30.35;32.99;;
66463;Laerm;56827;52.178;4.500;2022-08-03T00:40:28;31.89;30.66;34.52;;
66463;Laerm;56827;52.178;4.500;2022-08-03T00:40:38;35.97;32.07;38.29;;
66463;Laerm;56827;52.178;4.500;2022-08-03T00:40:49;34.90;30.67;38.79;;
66463;Laerm;56827;52.178;4.500;2022-08-03T00:40:59;31.56;30.40;32.71;;
66463;Laerm;56827;52.178;4.500;2022-08-03T00:41:09;33.47;31.33;35.71;;
66463;Laerm;56827;52.178;4.500;2022-08-03T00:41:19;35.32;31.74;37.99;;
66463;Laerm;56827;52.178;4.500;2022-08-03T00:41:30;32.29;30.74;33.68;;
66463;Laerm;56827;52.178;4.500;2022-08-03T00:41:40;30.99;29.86;33.24;;
66463;Laerm;56827;52.178;4.500;2022-08-03T00:41:50;32.07;30.14;33.90;;
66463;Laerm;56827;52.178;4.500;2022-08-03T00:42:01;32.09;30.90;36.37;;
66463;Laerm;56827;52.178;4.500;2022-08-03T00:42:12;33.92;31.12;41.21;;
66463;Laerm;56827;52.178;4.500;2022-08-03T00:42:22;32.77;30.13;36.93;;
66463;Laerm;56827;52.178;4.500;2022-08-03T00:42:32;33.01;31.02;35.08;;
66463;Laerm;56827;52.178;4.500;2022-08-03T00:43:03;31.64;29.67;37.52;;
66463;Laerm;56827;52.178;4.500;2022-08-03T00:43:14;31.16;29.90;32.21;;
66463;Laerm;56827;52.178;4.500;2022-08-03T00:43:24;30.99;29.41;32.20;;
66463;Laerm;56827;52.178;4.500;2022-08-03T00:43:36;31.63;29.75;39.67;;
66463;Laerm;56827;52.178;4.500;2022-08-03T00:43:46;32.13;30.04;34.84;;
66463;Laerm;56827;52.178;4.500;2022-08-03T00:43:56;31.01;29.88;37.00;;
66463;Laerm;56827;52.178;4.500;2022-08-03T00:44:06;31.16;29.97;32.68;;
66463;Laerm;56827;52.178;4.500;2022-08-03T00:44:17;30.93;29.82;32.71;;
66463;Laerm;56827;52.178;4.500;2022-08-03T00:44:27;30.86;29.84;32.15;;
66463;Laerm;56827;52.178;4.500;2022-08-03T00:44:41;33.36;30.32;36.82;;
66463;Laerm;56827;52.178;4.500;2022-08-03T00:44:51;36.39;32.65;46.19;;
66463;Laerm;56827;52.178;4.500;2022-08-03T00:45:01;33.36;30.12;44.39;;
66463;Laerm;56827;52.178;4.500;2022-08-03T00:45:11;30.75;29.33;35.43;;
66463;Laerm;56827;52.178;4.500;2022-08-03T00:45:23;31.04;29.73;33.90;;
66463;Laerm;56827;52.178;4.500;2022-08-03T00:45:34;31.43;29.92;33.67;;
66463;Laerm;56827;52.178;4.500;2022-08-03T00:45:45;38.31;30.11;42.80;;
66463;Laerm;56827;52.178;4.500;2022-08-03T00:45:55;37.48;32.19;39.80;;
66463;Laerm;56827;52.178;4.500;2022-08-03T00:46:06;34.56;31.91;38.24;;
66463;Laerm;56827;52.178;4.500;2022-08-03T00:46:16;33.16;30.62;37.19;;
66463;Laerm;56827;52.178;4.500;2022-08-03T00:46:26;31.55;30.45;32.89;;
66463;Laerm;56827;52.178;4.500;2022-08-03T00:46:36;32.28;31.08;33.90;;
66463;Laerm;56827;52.178;4.500;2022-08-03T00:46:47;32.25;30.58;35.08;;
66463;Laerm;56827;52.178;4.500;2022-08-03T00:46:57;39.33;31.70;43.56;;
66463;Laerm;56827;52.178;4.500;2022-08-03T00:47:07;38.09;32.07;43.17;;
66463;Laerm;56827;52.178;4.500;2022-08-03T00:47:19;40.86;34.29;43.65;;
66463;Laerm;56827;52.178;4.500;2022-08-03T00:47:29;35.08;33.17;37.45;;
66463;Laerm;56827;52.178;4.500;2022-08-03T00:47:39;37.00;35.02;39.45;;
66463;Laerm;56827;52.178;4.500;2022-08-03T00:47:50;38.33;37.08;39.94;;
66463;Laerm;56827;52.178;4.500;2022-08-03T00:48:00;35.94;32.47;39.69;;
66463;Laerm;56827;52.178;4.500;2022-08-03T00:48:11;33.25;30.92;35.51;;
66463;Laerm;56827;52.178;4.500;2022-08-03T00:48:22;31.42;30.19;33.92;;
66463;Laerm;56827;52.178;4.500;2022-08-03T00:48:32;30.76;29.35;31.92;;
66463;Laerm;56827;52.178;4.500;2022-08-03T00:48:42;31.18;29.69;32.86;;
66463;Laerm;56827;52.178;4.500;2022-08-03T00:48:52;32.78;31.06;34.30;;
66463;Laerm;56827;52.178;4.500;2022-08-03T00:49:03;32.18;31.09;33.41;;
66463;Laerm;56827;52.178;4.500;2022-08-03T00:49:13;31.74;30.16;33.45;;
66463;Laerm;56827;52.178;4.500;2022-08-03T00:49:23;31.64;30.62;33.21;;
66463;Laerm;56827;52.178;4.500;2022-08-03T00:49:33;31.25;29.85;32.82;;
66463;Laerm;56827;52.178;4.500;2022-08-03T00:49:44;31.00;29.79;33.06;;
66463;Laerm;56827;52.178;4.500;2022-08-03T00:49:54;31.56;29.95;33.44;;
66463;Laerm;56827;52.178;4.500;2022-08-03T00:50:04;33.49;31.13;37.07;;
66463;Laerm;56827;52.178;4.500;2022-08-03T00:50:15;38.11;34.94;40.20;;
66463;Laerm;56827;52.178;4.500;2022-08-03T00:50:26;33.64;30.40;37.63;;
66463;Laerm;56827;52.178;4.500;2022-08-03T00:50:38;32.26;30.70;34.88;;
66463;Laerm;56827;52.178;4.500;2022-08-03T00:50:49;35.35;33.60;37.22;;
66463;Laerm;56827;52.178;4.500;2022-08-03T00:50:59;38.25;33.71;41.73;;
66463;Laerm;56827;52.178;4.500;2022-08-03T00:51:09;32.94;31.16;34.96;;
66463;Laerm;56827;52.178;4.500;2022-08-03T00:51:19;33.16;31.14;34.85;;
66463;Laerm;56827;52.178;4.500;2022-08-03T00:51:31;32.68;30.39;34.68;;
66463;Laerm;56827;52.178;4.500;2022-08-03T00:51:42;32.68;30.28;35.45;;
66463;Laerm;56827;52.178;4.500;2022-08-03T00:51:53;32.16;30.41;34.37;;
66463;Laerm;56827;52.178;4.500;2022-08-03T00:52:03;32.94;30.97;35.31;;
66463;Laerm;56827;52.178;4.500;2022-08-03T00:52:13;33.55;30.56;38.61;;
66463;Laerm;56827;52.178;4.500;2022-08-03T00:52:24;34.89;31.57;38.75;;
66463;Laerm;56827;52.178;4.500;2022-08-03T00:52:34;37.03;32.20;39.74;;
66463;Laerm;56827;52.178;4.500;2022-08-03T00:52:45;36.59;30.73;41.03;;
66463;Laerm;56827;52.178;4.500;2022-08-03T00:52:57;32.12;30.56;33.72;;
66463;Laerm;56827;52.178;4.500;2022-08-03T00:53:09;33.11;30.60;37.04;;
66463;Laerm;56827;52.178;4.500;2022-08-03T00:53:21;33.69;32.00;38.10;;
66463;Laerm;56827;52.178;4.500;2022-08-03T00:53:31;33.25;31.81;36.11;;
66463;Laerm;56827;52.178;4.500;2022-08-03T00:53:43;34.24;31.87;41.00;;
66463;Laerm;56827;52.178;4.500;2022-08-03T00:53:54;35.77;32.18;45.00;;
66463;Laerm;56827;52.178;4.500;2022-08-03T00:54:04;40.38;33.56;52.32;;
66463;Laerm;56827;52.178;4.500;2022-08-03T00:54:15;41.49;33.25;53.07;;
66463;Laerm;56827;52.178;4.500;2022-08-03T00:54:25;39.54;32.40;49.96;;
66463;Laerm;56827;52.178;4.500;2022-08-03T00:54:36;34.54;32.20;41.12;;
66463;Laerm;56827;52.178;4.500;2022-08-03T00:54:47;33.23;30.84;36.27;;
66463;Laerm;56827;52.178;4.500;2022-08-03T00:54:58;33.21;30.42;35.47;;
66463;Laerm;56827;52.178;4.500;2022-08-03T00:55:10;32.02;30.23;34.15;;
66463;Laerm;56827;52.178;4.500;2022-08-03T00:55:21;31.21;29.89;32.49;;
66463;Laerm;56827;52.178;4.500;2022-08-03T00:55:31;30.86;29.50;32.87;;
66463;Laerm;56827;52.178;4.500;2022-08-03T00:55:41;30.91;29.71;35.94;;
66463;Laerm;56827;52.178;4.500;2022-08-03T00:55:52;30.83;29.78;31.95;;
66463;Laerm;56827;52.178;4.500;2022-08-03T00:56:02;31.24;30.01;32.36;;
66463;Laerm;56827;52.178;4.500;2022-08-03T00:56:13;34.62;31.35;38.08;;
66463;Laerm;56827;52.178;4.500;2022-08-03T00:56:24;32.07;30.32;35.30;;
66463;Laerm;56827;52.178;4.500;2022-08-03T00:56:35;31.43;30.21;39.57;;
66463;Laerm;56827;52.178;4.500;2022-08-03T00:56:46;36.46;31.87;40.14;;
66463;Laerm;56827;52.178;4.500;2022-08-03T00:56:56;32.21;29.91;34.39;;
66463;Laerm;56827;52.178;4.500;2022-08-03T00:57:06;31.11;29.64;32.38;;
66463;Laerm;56827;52.178;4.500;2022-08-03T00:57:17;32.52;30.32;36.02;;
66463;Laerm;56827;52.178;4.500;2022-08-03T00:57:28;32.34;30.40;35.08;;
66463;Laerm;56827;52.178;4.500;2022-08-03T00:57:39;31.40;30.33;32.85;;
66463;Laerm;56827;52.178;4.500;2022-08-03T00:57:50;32.48;30.75;33.81;;
66463;Laerm;56827;52.178;4.500;2022-08-03T00:58:01;31.54;30.36;32.71;;
66463;Laerm;56827;52.178;4.500;2022-08-03T00:58:15;31.90;29.90;33.47;;
66463;Laerm;56827;52.178;4.500;2022-08-03T00:58:25;31.88;30.10;35.01;;
66463;Laerm;56827;52.178;4.500;2022-08-03T00:58:36;32.48;30.25;36.19;;